createdAt,value
2018-04-26T00:18:17.521Z,20.56
2018-04-26T00:20:23.085Z,20.56
2018-04-26T00:22:27.229Z,20.84
2018-04-26T00:24:31.746Z,20.98
2018-04-26T00:26:35.837Z,20.97
2018-04-26T00:28:39.681Z,20.57
2018-04-26T00:30:44.339Z,20.46
2018-04-26T00:32:48.493Z,20.41
2018-04-26T00:34:52.809Z,20.48
2018-04-26T00:36:57.330Z,20.47
2018-04-26T00:39:01.923Z,20.25
2018-04-26T00:41:06.786Z,20.68
2018-04-26T00:43:11.823Z,20.67
2018-04-26T00:45:16.540Z,20.83
2018-04-26T00:47:22.005Z,20.69
2018-04-26T00:49:26.413Z,20.75
2018-04-26T00:51:39.182Z,20.61
2018-04-26T00:53:43.077Z,20.52
2018-04-26T00:55:47.834Z,20.35
2018-04-26T00:57:51.817Z,20.54
2018-04-26T00:59:55.724Z,20.45
2018-04-26T01:02:00.211Z,20.48
2018-04-26T01:04:04.514Z,19.96
2018-04-26T01:06:09.858Z,19.97
2018-04-26T01:08:14.464Z,20.25
2018-04-26T01:10:20.590Z,20.24
2018-04-26T01:12:25.182Z,20.25
2018-04-26T01:14:29.340Z,20.64
2018-04-26T01:16:33.949Z,19.95
2018-04-26T01:18:37.880Z,20.07
2018-04-26T01:20:41.969Z,20.39
2018-04-26T01:22:46.564Z,20.74
2018-04-26T01:24:50.769Z,20.46
2018-04-26T01:26:54.743Z,20.73
2018-04-26T01:28:59.348Z,20.24
2018-04-26T01:31:03.659Z,20.19
2018-04-26T01:33:08.814Z,20.49
2018-04-26T01:35:13.501Z,20.45
2018-04-26T01:37:54.661Z,20.57
2018-04-26T01:39:58.805Z,20.88
2018-04-26T01:42:02.705Z,20.93
2018-04-26T01:44:07.278Z,21.17
2018-04-26T01:46:11.530Z,21.22
2018-04-26T01:48:17.349Z,21.08
2018-04-26T01:50:23.652Z,20.93
2018-04-26T01:52:27.497Z,21.06
2018-04-26T01:54:31.608Z,20.64
2018-04-26T01:56:36.101Z,20.46
2018-04-26T01:58:40.284Z,20.21
2018-04-26T02:00:44.556Z,20.75
2018-04-26T02:02:49.211Z,20.53
2018-04-26T02:04:53.358Z,21.24
2018-04-26T02:06:57.490Z,21.05
2018-04-26T02:09:02.184Z,21.16
2018-04-26T02:11:06.460Z,21.14
2018-04-26T02:13:12.148Z,20.60
2018-04-26T02:15:19.436Z,20.92
2018-04-26T02:17:25.497Z,20.63
2018-04-26T02:19:29.962Z,20.92
2018-04-26T02:21:34.544Z,21.17
2018-04-26T02:23:38.668Z,21.28
2018-04-26T02:25:42.888Z,21.30
2018-04-26T02:27:47.364Z,20.95
2018-04-26T02:29:51.535Z,21.24
2018-04-26T02:31:55.748Z,21.05
2018-04-26T02:34:00.427Z,21.01
2018-04-26T02:36:04.705Z,21.04
2018-04-26T02:38:09.610Z,20.79
2018-04-26T02:40:15.060Z,21.13
2018-04-26T02:42:20.686Z,20.97
2018-04-26T02:44:26.320Z,20.51
2018-04-26T02:46:31.270Z,20.84
2018-04-26T02:48:35.602Z,21.13
2018-04-26T02:50:39.865Z,21.18
2018-04-26T02:52:44.256Z,21.20
2018-04-26T02:54:49.054Z,21.27
2018-04-26T02:56:53.082Z,20.98
2018-04-26T02:58:57.360Z,20.81
2018-04-26T03:01:01.826Z,21.08
2018-04-26T03:03:06.389Z,20.72
2018-04-26T03:05:12.527Z,21.05
2018-04-26T03:07:17.446Z,21.14
2018-04-26T03:09:22.950Z,21.45
2018-04-26T03:11:27.420Z,20.80
2018-04-26T03:13:32.174Z,21.18
2018-04-26T03:15:36.410Z,21.13
2018-04-26T03:17:40.721Z,21.14
2018-04-26T03:19:45.281Z,21.21
2018-04-26T03:21:49.422Z,21.16
2018-04-26T03:23:53.370Z,21.31
2018-04-26T03:25:57.455Z,21.41
2018-04-26T03:28:02.081Z,21.12
2018-04-26T03:30:07.095Z,20.90
2018-04-26T03:32:13.040Z,21.05
2018-04-26T03:34:17.067Z,20.79
2018-04-26T03:36:22.897Z,21.06
2018-04-26T03:38:27.062Z,21.03
2018-04-26T03:40:31.105Z,21.06
2018-04-26T03:42:35.857Z,21.06
2018-04-26T03:44:40.198Z,21.10
2018-04-26T03:46:44.468Z,20.98
2018-04-26T03:48:48.465Z,20.69
2018-04-26T03:50:53.213Z,20.77
2018-04-26T03:52:57.245Z,20.66
2018-04-26T03:55:01.428Z,21.13
2018-04-26T03:57:05.377Z,20.83
2018-04-26T03:59:12.551Z,21.16
2018-04-26T04:02:28.035Z,20.73
2018-04-26T04:05:48.694Z,20.35
2018-04-26T04:07:52.967Z,20.62
2018-04-26T04:09:57.152Z,20.83
2018-04-26T04:12:01.177Z,20.59
2018-04-26T04:14:05.293Z,20.47
2018-04-26T04:16:09.686Z,20.76
2018-04-26T04:18:13.712Z,20.21
2018-04-26T04:20:18.112Z,20.86
2018-04-26T04:22:26.093Z,20.91
2018-04-26T04:24:30.078Z,20.75
2018-04-26T04:26:33.910Z,20.65
2018-04-26T04:28:38.094Z,20.85
2018-04-26T04:30:41.969Z,20.98
2018-04-26T04:32:45.808Z,20.64
2018-04-26T04:34:50.275Z,20.56
2018-04-26T04:36:54.253Z,20.89
2018-04-26T04:38:58.459Z,21.11
2018-04-26T04:41:02.774Z,20.82
2018-04-26T04:43:07.674Z,20.54
2018-04-26T04:45:13.610Z,20.50
2018-04-26T04:47:20.158Z,20.40
2018-04-26T04:49:24.549Z,20.54
2018-04-26T04:51:28.521Z,20.25
2018-04-26T04:53:32.805Z,20.52
2018-04-26T04:55:37.074Z,20.41
2018-04-26T04:57:41.048Z,20.68
2018-04-26T04:59:46.725Z,20.49
2018-04-26T05:01:50.735Z,20.33
2018-04-26T05:03:54.771Z,20.41
2018-04-26T05:05:59.577Z,20.77
2018-04-26T05:08:03.680Z,20.76
2018-04-26T05:10:07.736Z,20.51
2018-04-26T05:12:12.131Z,20.57
2018-04-26T05:14:16.947Z,20.84
2018-04-26T05:16:21.658Z,20.85
2018-04-26T05:18:25.996Z,20.15
2018-04-26T05:20:30.238Z,19.99
2018-04-26T05:22:34.109Z,20.03
2018-04-26T05:24:38.300Z,20.77
2018-04-26T05:26:42.157Z,20.64
2018-04-26T05:28:46.061Z,20.94
2018-04-26T05:30:51.303Z,20.02
2018-04-26T05:32:55.137Z,20.37
2018-04-26T05:34:59.173Z,20.16
2018-04-26T05:37:03.564Z,20.05
2018-04-26T05:39:07.501Z,19.65
2018-04-26T05:41:11.668Z,20.14
2018-04-26T05:43:16.407Z,19.89
2018-04-26T05:45:21.619Z,19.42
2018-04-26T05:47:26.919Z,19.91
2018-04-26T05:49:31.801Z,20.46
2018-04-26T05:51:36.442Z,20.13
2018-04-26T05:53:40.918Z,19.86
2018-04-26T05:55:45.734Z,19.30
2018-04-26T05:57:49.546Z,19.23
2018-04-26T05:59:53.723Z,19.11
2018-04-26T06:01:57.869Z,19.15
2018-04-26T06:04:02.158Z,18.94
2018-04-26T06:06:09.056Z,19.02
2018-04-26T06:08:13.546Z,19.76
2018-04-26T06:10:19.100Z,19.58
2018-04-26T06:12:23.844Z,19.32
2018-04-26T06:14:28.229Z,19.64
2018-04-26T06:16:32.097Z,19.62
2018-04-26T06:18:36.118Z,19.31
2018-04-26T06:20:40.466Z,19.02
2018-04-26T06:22:44.612Z,19.81
2018-04-26T06:24:48.896Z,19.22
2018-04-26T06:26:53.389Z,18.63
2018-04-26T06:28:58.014Z,19.19
2018-04-26T06:31:02.237Z,18.78
2018-04-26T06:33:08.456Z,18.72
2018-04-26T06:35:12.578Z,19.08
2018-04-26T06:37:17.805Z,18.75
2018-04-26T06:39:22.754Z,19.22
2018-04-26T06:41:26.706Z,18.58
2018-04-26T06:43:31.054Z,18.74
2018-04-26T06:45:35.345Z,19.38
2018-04-26T06:47:39.399Z,19.35
2018-04-26T06:49:43.666Z,18.96
2018-04-26T06:51:47.820Z,18.80
2018-04-26T06:53:52.023Z,19.29
2018-04-26T06:55:56.017Z,19.46
2018-04-26T06:58:00.261Z,19.02
2018-04-26T07:00:04.569Z,18.46
2018-04-26T07:02:10.819Z,18.42
2018-04-26T07:04:15.921Z,18.89
2018-04-26T07:06:21.461Z,17.99
2018-04-26T07:08:26.297Z,18.81
2018-04-26T07:10:30.725Z,17.70
2018-04-26T07:12:34.913Z,18.51
2018-04-26T07:14:38.827Z,17.88
2018-04-26T07:16:43.685Z,17.82
2018-04-26T07:18:48.129Z,17.87
2018-04-26T07:20:52.222Z,18.80
2018-04-26T07:22:56.841Z,18.42
2018-04-26T07:25:01.131Z,18.56
2018-04-26T07:27:05.302Z,18.84
2018-04-26T07:29:11.106Z,18.69
2018-04-26T07:31:15.519Z,18.89
2018-04-26T07:33:21.535Z,18.85
2018-04-26T07:35:26.470Z,18.59
2018-04-26T07:37:31.328Z,18.31
2018-04-26T07:39:36.964Z,18.51
2018-04-26T07:41:41.764Z,19.00
2018-04-26T07:43:47.370Z,18.72
2018-04-26T07:45:52.278Z,18.66
2018-04-26T07:48:02.268Z,19.32
2018-04-26T07:50:08.731Z,19.59
2018-04-26T07:52:13.012Z,19.68
2018-04-26T07:54:19.558Z,19.71
2018-04-26T07:56:27.081Z,19.06
2018-04-26T07:58:32.372Z,19.65
2018-04-26T08:00:36.801Z,19.37
2018-04-26T08:02:41.647Z,18.73
2018-04-26T08:04:45.954Z,19.26
2018-04-26T08:06:50.289Z,19.26
2018-04-26T08:08:54.506Z,19.53
2018-04-26T08:10:59.336Z,18.89
2018-04-26T08:13:04.153Z,18.97
2018-04-26T08:15:10.422Z,18.79
2018-04-26T08:17:14.456Z,18.64
2018-04-26T08:19:21.220Z,18.85
2018-04-26T08:21:25.790Z,18.90
2018-04-26T08:23:29.896Z,19.00
2018-04-26T08:25:34.511Z,19.31
2018-04-26T08:27:38.629Z,19.02
2018-04-26T08:29:43.281Z,19.56
2018-04-26T08:31:47.833Z,18.72
2018-04-26T08:33:52.295Z,19.38
2018-04-26T08:35:56.599Z,19.28
2018-04-26T08:38:01.113Z,18.89
2018-04-26T08:40:05.349Z,18.60
2018-04-26T08:42:11.190Z,19.18
2018-04-26T08:44:16.081Z,18.65
2018-04-26T08:46:23.076Z,18.75
2018-04-26T08:48:28.918Z,19.33
2018-04-26T08:50:33.566Z,18.57
2018-04-26T08:52:37.629Z,18.13
2018-04-26T08:54:42.142Z,18.47
2018-04-26T08:56:46.483Z,19.01
2018-04-26T08:58:51.054Z,19.29
2018-04-26T09:00:55.357Z,19.31
2018-04-26T09:03:00.042Z,18.94
2018-04-26T09:05:04.481Z,19.47
2018-04-26T09:07:11.150Z,19.81
2018-04-26T09:09:15.854Z,19.82
2018-04-26T09:11:21.094Z,19.90
2018-04-26T09:13:25.322Z,19.76
2018-04-26T09:15:30.412Z,20.03
2018-04-26T09:17:39.399Z,20.15
2018-04-26T09:19:43.671Z,20.05
2018-04-26T09:21:48.080Z,19.59
2018-04-26T09:23:52.242Z,19.79
2018-04-26T09:25:56.298Z,19.96
2018-04-26T09:28:00.827Z,19.58
2018-04-26T09:30:05.187Z,20.15
2018-04-26T09:32:11.913Z,19.31
2018-04-26T09:34:20.623Z,19.52
2018-04-26T09:36:25.765Z,19.57
2018-04-26T09:38:30.456Z,19.95
2018-04-26T09:40:34.948Z,20.20
2018-04-26T09:42:39.235Z,19.69
2018-04-26T09:44:43.910Z,19.64
2018-04-26T09:46:48.537Z,19.46
2018-04-26T09:48:52.864Z,19.25
2018-04-26T09:50:56.872Z,19.63
2018-04-26T09:53:01.693Z,19.70
2018-04-26T09:57:25.174Z,19.72
2018-04-26T09:59:29.724Z,19.76
2018-04-26T10:01:36.058Z,19.77
2018-04-26T10:03:40.408Z,19.96
2018-04-26T10:05:48.703Z,19.72
2018-04-26T10:07:52.906Z,19.57
2018-04-26T10:09:59.519Z,19.59
2018-04-26T10:12:04.364Z,19.39
2018-04-26T10:14:12.083Z,19.93
2018-04-26T10:16:16.874Z,19.73
2018-04-26T10:18:24.213Z,20.04
2018-04-26T10:20:28.412Z,19.90
2018-04-26T10:22:32.535Z,19.33
2018-04-26T10:24:36.808Z,19.15
2018-04-26T10:26:40.968Z,19.65
2018-04-26T10:28:45.017Z,19.22
2018-04-26T10:30:49.537Z,19.69
2018-04-26T10:32:53.738Z,19.99
2018-04-26T10:34:58.002Z,20.04
2018-04-26T10:37:02.396Z,20.04
2018-04-26T10:39:08.400Z,20.14
2018-04-26T10:41:12.746Z,20.15
2018-04-26T10:43:17.354Z,20.41
2018-04-26T10:45:22.547Z,20.51
2018-04-26T10:47:27.451Z,20.11
2018-04-26T10:49:31.738Z,20.06
2018-04-26T10:51:36.094Z,19.86
2018-04-26T10:53:40.483Z,20.04
2018-04-26T10:55:47.518Z,19.95
2018-04-26T10:57:51.971Z,19.37
2018-04-26T10:59:56.095Z,19.46
2018-04-26T11:02:00.213Z,19.30
2018-04-26T11:04:04.122Z,19.17
2018-04-26T11:06:09.096Z,19.09
2018-04-26T11:08:13.900Z,19.69
2018-04-26T11:10:18.520Z,19.37
2018-04-26T11:12:22.788Z,19.36
2018-04-26T11:14:27.001Z,19.38
2018-04-26T11:16:31.044Z,19.65
2018-04-26T11:18:34.942Z,19.62
2018-04-26T11:20:43.649Z,19.76
2018-04-26T11:22:47.541Z,19.73
2018-04-26T11:24:51.504Z,19.78
2018-04-26T11:26:55.920Z,19.83
2018-04-26T11:28:59.877Z,19.68
2018-04-26T11:31:03.993Z,19.89
2018-04-26T11:33:10.702Z,19.93
2018-04-26T11:35:14.973Z,20.31
2018-04-26T11:37:23.447Z,20.17
2018-04-26T11:39:28.601Z,20.15
2018-04-26T11:41:33.244Z,20.27
2018-04-26T11:43:38.097Z,20.18
2018-04-26T11:45:43.057Z,20.14
2018-04-26T11:49:12.255Z,20.22
2018-04-26T11:51:18.635Z,20.22
2018-04-26T11:53:25.623Z,20.13
2018-04-26T11:55:31.539Z,20.12
2018-04-26T11:57:36.006Z,19.83
2018-04-26T11:59:40.310Z,19.92
2018-04-26T12:01:45.187Z,20.01
